SEKCJA WYDRUKÓW, pokaż »

TAF EPSY 282330Z 2900/2909 17006KT 9999 BKN020
TEMPO 2901/2907 4000 BR BKN008
PROB40 TEMPO 2901/2906 2000 BR BKN004=